Aviation Digital Data Service (ADDS)

Output produced by METARs form (1042 UTC 20 August 2014)
found at http://aviationweather.gov/adds/metars/
 
KCON 200945Z 2010/2106 VRB03KT P6SM FEW250 
     TEMPO 2010/2012 2SM BR BKN002 
     FM201800 18005KT P6SM SKC